Todos
Damyns Hall Aerodrome Airport (Upminster, England) EGML Condições meteorológicas
There is no TAF data available at EGML. Showing TAF data for EGLC (8 mi O).
LCY Previsão da área de terminais (sem dados para EGML)
| Date | Time (BST) | Flight Rules | Wind Dir. | Speed | Type | Height AGL (ft) | Visibility | Remarks | ||||||
|---|---|---|---|---|---|---|---|---|---|---|---|---|---|---|
| 05-Set | 12:00 | VFR | 260° | 8 kt | Clouds and Visibility are OK | >= 6 miles | ||||||||
| 05-Set | 11:00 | VFR | 260° | 8 kt | Clouds and Visibility are OK | >= 6 miles | ||||||||
There is no METAR data available at EGML. Showing METAR data for EGLC (8 mi O).
Histórico recente de METAR LCY (sem dados para EGML)
| Date | Time (BST) | Flight Rules | Wind Dir. | Speed | Type | Height AGL (ft) | Visibility | Temp (°C) | Temp (°F) | Dew Point (°C) | Dew Point (°F) | Rel. Humid. | Pressure | Density Altitude | Remarks |
|---|---|---|---|---|---|---|---|---|---|---|---|---|---|---|---|
| 05-Set | 11:50 | VFR | 260° | 9 kt | Scattered |
3.800 |
10000 meters | 19° | 66° | 9° | 48° | 52% | 1024 mb | 180 ft | |
| 05-Set | 11:20 | VFR | 270° | 9 kt | Few |
3.700 |
10000 meters | 19° | 66° | 10° | 50° | 56% | 1024 mb | 180 ft | |
| 05-Set | 10:50 | VFR | 280° | 9 kt | 10000 meters | 18° | 64° | 10° | 50° | 59% | 1024 mb | 60 ft | |||
| 05-Set | 10:20 | VFR | 280° | 9 kt | 10000 meters | 18° | 64° | 10° | 50° | 59% | 1023 mb | 90 ft | |||
| 05-Set | 09:50 | VFR | 260° | 7 kt | 10000 meters | 17° | 62° | 10° | 50° | 63% | 1023 mb | -30 ft | |||
| 05-Set | 09:20 | VFR | 250° | 8 kt | 10000 meters | 17° | 62° | 10° | 50° | 63% | 1023 mb | -30 ft | |||
| 05-Set | 08:50 | VFR | 250° | 6 kt | 10000 meters | 16° | 60° | 11° | 51° | 72% | 1023 mb | -150 ft | |||
| 05-Set | 08:20 | VFR | 250° | 9 kt | 10000 meters | 15° | 59° | 11° | 51° | 77% | 1023 mb | -270 ft | |||
| 05-Set | 07:50 | VFR | 230° | 7 kt | 10000 meters | 14° | 57° | 11° | 51° | 82% | 1022 mb | -361 ft | |||
| 05-Set | 07:20 | VFR | 230° | 9 kt | 10000 meters | 14° | 57° | 11° | 51° | 82% | 1022 mb | -361 ft | |||
| 05-Set | 06:50 | VFR | 240° | 8 kt | 10000 meters | 13° | 55° | 11° | 51° | 88% | 1021 mb | -451 ft | |||
| 05-Set | 06:20 | VFR | 240° | 8 kt | 10000 meters | 14° | 57° | 11° | 51° | 82% | 1021 mb | -331 ft | |||
| 05-Set | 05:50 | VFR | 230° | 9 kt | 10000 meters | 14° | 57° | 11° | 51° | 82% | 1021 mb | -331 ft | |||
| 05-Set | 05:20 | VFR | 240° | 10 kt | 10000 meters | 14° | 57° | 11° | 51° | 82% | 1021 mb | -331 ft | |||
| 05-Set | 04:50 | VFR | 240° | 9 kt | 10000 meters | 14° | 57° | 11° | 51° | 82% | 1021 mb | -331 ft | |||
| 05-Set | 04:20 | VFR | 240° | 11 kt | 10000 meters | 14° | 57° | 11° | 51° | 82% | 1020 mb | -302 ft | |||
| 05-Set | 03:50 | VFR | 230° | 10 kt | 10000 meters | 14° | 57° | 11° | 51° | 82% | 1020 mb | -302 ft | |||
| 05-Set | 03:20 | VFR | 240° | 9 kt | 10000 meters | 14° | 57° | 11° | 51° | 82% | 1020 mb | -302 ft | |||
| 05-Set | 02:50 | VFR | 240° | 10 kt | 10000 meters | 15° | 59° | 11° | 51° | 77% | 1020 mb | -182 ft | |||
| 05-Set | 02:20 | VFR | 240° | 9 kt | 10000 meters | 15° | 59° | 11° | 51° | 77% | 1019 mb | -152 ft | |||
| 05-Set | 01:50 | VFR | 240° | 9 kt | 10000 meters | 15° | 59° | 11° | 51° | 77% | 1019 mb | -152 ft | |||
| 05-Set | 01:20 | VFR | 240° | 9 kt | 10000 meters | 15° | 59° | 11° | 51° | 77% | 1019 mb | -152 ft | |||
| 05-Set | 00:50 | VFR | 250° | 10 kt | 10000 meters | 16° | 60° | 11° | 51° | 72% | 1019 mb | -32 ft | |||
| 05-Set | 00:20 | VFR | 240° | 9 kt | 10000 meters | 16° | 60° | 11° | 51° | 72% | 1019 mb | -32 ft |
Entrar
| Seu navegador não suporta. atualize seu navegador |
